createdAt,value
2022-11-13T00:00:52.675Z,19.98
2022-11-13T00:02:55.863Z,16.05
2022-11-13T00:04:59.075Z,17.37
2022-11-13T00:07:04.920Z,21.80
2022-11-13T00:09:12.360Z,19.45
2022-11-13T00:11:18.501Z,18.70
2022-11-13T00:13:23.979Z,16.00
2022-11-13T00:15:31.137Z,12.50
2022-11-13T00:17:34.382Z,14.88
2022-11-13T00:19:38.001Z,10.70
2022-11-13T00:21:41.310Z,10.70
2022-11-13T00:23:45.213Z,8.82
2022-11-13T00:25:49.969Z,9.95
2022-11-13T00:27:53.593Z,11.77
2022-11-13T00:29:56.824Z,12.25
2022-11-13T00:32:00.399Z,12.30
2022-11-13T00:36:29.031Z,16.10
2022-11-13T00:38:32.717Z,17.80
2022-11-13T00:40:36.023Z,16.80
2022-11-13T00:42:40.734Z,15.20
2022-11-13T00:44:43.925Z,13.02
2022-11-13T00:46:47.175Z,11.70
2022-11-13T00:48:50.554Z,12.90
2022-11-13T00:50:54.694Z,12.02
2022-11-13T00:52:57.905Z,12.60
2022-11-13T00:55:01.395Z,9.80
2022-11-13T00:57:04.646Z,8.40
2022-11-13T00:59:09.337Z,6.20
2022-11-13T01:01:14.763Z,8.45
2022-11-13T01:03:19.278Z,7.32
2022-11-13T01:05:22.532Z,5.77
2022-11-13T01:07:25.760Z,5.22
2022-11-13T01:09:28.967Z,6.15
2022-11-13T01:11:35.975Z,6.57
2022-11-13T01:13:39.667Z,5.88
2022-11-13T01:15:45.952Z,7.72
2022-11-13T01:17:49.155Z,6.20
2022-11-13T01:19:56.317Z,5.60
2022-11-13T01:21:59.643Z,5.18
2022-11-13T01:24:03.207Z,6.97
2022-11-13T01:26:10.018Z,6.85
2022-11-13T01:28:13.290Z,5.57
2022-11-13T01:30:16.640Z,6.45
2022-11-13T01:32:21.301Z,7.00
2022-11-13T01:34:24.691Z,9.23
2022-11-13T01:36:29.429Z,7.43
2022-11-13T01:38:36.253Z,6.65
2022-11-13T01:40:46.706Z,6.57
2022-11-13T01:42:49.914Z,7.00
2022-11-13T01:44:54.919Z,6.45
2022-11-13T01:46:58.475Z,7.13
2022-11-13T01:49:16.515Z,8.93
2022-11-13T01:51:25.437Z,5.78
2022-11-13T01:53:29.741Z,5.85
2022-11-13T01:55:33.123Z,11.43
2022-11-13T01:57:36.677Z,7.82
2022-11-13T01:59:42.979Z,8.30
2022-11-13T02:01:46.572Z,9.70
2022-11-13T02:03:50.132Z,10.90
2022-11-13T02:05:55.724Z,14.15
2022-11-13T02:07:59.020Z,10.82
2022-11-13T02:10:05.778Z,9.38
2022-11-13T02:12:12.966Z,8.38
2022-11-13T02:14:17.171Z,7.78
2022-11-13T02:16:23.184Z,6.95
2022-11-13T02:18:28.871Z,6.07
2022-11-13T02:20:39.180Z,8.57
2022-11-13T02:22:51.795Z,13.07
2022-11-13T02:25:00.206Z,8.45
2022-11-13T02:27:07.034Z,9.15
2022-11-13T02:29:10.367Z,7.55
2022-11-13T02:31:15.359Z,7.03
2022-11-13T02:33:24.053Z,6.80
2022-11-13T02:35:29.761Z,7.13
2022-11-13T02:37:33.158Z,6.97
2022-11-13T02:39:36.752Z,7.82
2022-11-13T02:41:41.559Z,6.47
2022-11-13T02:43:44.865Z,6.68
2022-11-13T02:45:48.036Z,6.80
2022-11-13T02:47:51.379Z,7.47
2022-11-13T02:49:54.677Z,8.35
2022-11-13T02:51:57.923Z,9.20
2022-11-13T02:54:01.559Z,6.53
2022-11-13T02:56:05.016Z,6.72
2022-11-13T02:58:09.722Z,9.65
2022-11-13T03:00:14.503Z,8.52
2022-11-13T03:02:17.794Z,8.18
2022-11-13T03:04:21.024Z,7.32
2022-11-13T03:06:24.279Z,6.13
2022-11-13T03:08:27.906Z,7.60
2022-11-13T03:10:31.307Z,7.22
2022-11-13T03:12:35.435Z,7.47
2022-11-13T03:14:40.129Z,10.55
2022-11-13T03:16:43.650Z,8.63
2022-11-13T03:18:46.942Z,13.52
2022-11-13T03:20:53.990Z,10.63
2022-11-13T03:22:57.311Z,14.07
2022-11-13T03:25:00.579Z,7.03
2022-11-13T03:27:04.070Z,10.63
2022-11-13T03:29:07.360Z,8.65
2022-11-13T03:31:12.143Z,8.07
2022-11-13T03:33:17.555Z,9.20
2022-11-13T03:35:20.994Z,8.05
2022-11-13T03:37:24.265Z,12.18
2022-11-13T03:39:27.417Z,10.43
2022-11-13T03:41:30.852Z,10.85
2022-11-13T03:43:34.006Z,10.48
2022-11-13T03:45:37.218Z,14.75
2022-11-13T03:47:42.022Z,10.00
2022-11-13T03:49:45.813Z,10.48
2022-11-13T03:51:49.103Z,8.50
2022-11-13T03:53:52.388Z,11.00
2022-11-13T03:55:55.824Z,8.88
2022-11-13T03:57:59.038Z,10.05
2022-11-13T04:00:04.586Z,9.15
2022-11-13T04:02:07.824Z,13.38
2022-11-13T04:04:12.831Z,11.38
2022-11-13T04:06:16.032Z,9.20
2022-11-13T04:08:19.367Z,12.15
2022-11-13T04:10:22.620Z,11.43
2022-11-13T04:12:25.984Z,10.40
2022-11-13T04:14:29.190Z,13.20
2022-11-13T04:16:32.420Z,12.18
2022-11-13T04:18:35.825Z,18.92
2022-11-13T04:20:40.486Z,11.00
2022-11-13T04:22:44.251Z,13.23
2022-11-13T04:24:47.563Z,12.23
2022-11-13T04:26:50.723Z,12.20
2022-11-13T04:28:54.280Z,16.25
2022-11-13T04:30:57.759Z,13.77
2022-11-13T04:33:01.205Z,12.32
2022-11-13T04:35:04.868Z,15.73
2022-11-13T04:37:09.586Z,13.07
2022-11-13T04:39:12.773Z,14.68
2022-11-13T04:41:52.519Z,13.80
2022-11-13T04:43:58.313Z,15.80
2022-11-13T04:46:01.660Z,16.63
2022-11-13T04:48:05.210Z,16.52
2022-11-13T04:50:08.778Z,17.10
2022-11-13T04:52:14.069Z,19.88
2022-11-13T04:54:17.420Z,17.10
2022-11-13T04:56:21.001Z,19.05
2022-11-13T04:58:24.316Z,16.98
2022-11-13T05:00:27.573Z,13.30
2022-11-13T05:02:30.870Z,13.55
2022-11-13T05:04:34.312Z,13.57
2022-11-13T05:06:37.555Z,10.25
2022-11-13T05:08:42.490Z,15.82
2022-11-13T05:10:45.728Z,12.15
2022-11-13T05:12:48.925Z,10.98
2022-11-13T05:14:52.218Z,16.85
2022-11-13T05:16:55.401Z,14.25
2022-11-13T05:19:00.132Z,14.13
2022-11-13T05:21:03.660Z,16.73
2022-11-13T05:23:06.914Z,14.15
2022-11-13T05:25:11.692Z,18.35
2022-11-13T05:27:17.548Z,10.98
2022-11-13T05:29:21.342Z,17.30
2022-11-13T05:31:24.625Z,9.98
2022-11-13T05:33:30.534Z,13.05
2022-11-13T05:35:34.130Z,16.60
2022-11-13T05:37:37.363Z,14.45
2022-11-13T05:39:40.542Z,22.23
2022-11-13T05:41:45.129Z,14.88
2022-11-13T05:43:49.022Z,13.35
2022-11-13T05:45:52.442Z,18.38
2022-11-13T05:47:55.659Z,18.17
2022-11-13T05:49:58.889Z,22.25
2022-11-13T05:52:02.124Z,18.45
2022-11-13T05:54:06.234Z,18.00
2022-11-13T05:56:12.451Z,19.95
2022-11-13T05:58:17.069Z,18.35
2022-11-13T06:00:20.647Z,18.20
2022-11-13T06:02:24.002Z,23.13
2022-11-13T06:04:27.349Z,20.02
2022-11-13T06:06:31.917Z,19.67
2022-11-13T06:08:35.527Z,19.15
2022-11-13T06:10:38.808Z,15.70
2022-11-13T06:12:41.974Z,22.17
2022-11-13T06:14:46.764Z,16.45
2022-11-13T06:16:50.000Z,13.55
2022-11-13T06:18:56.714Z,20.92
2022-11-13T06:21:02.726Z,13.10
2022-11-13T06:23:05.949Z,14.60
2022-11-13T06:25:09.346Z,15.88
2022-11-13T06:27:13.018Z,18.45
2022-11-13T06:29:16.201Z,18.73
2022-11-13T06:31:24.386Z,25.65
2022-11-13T06:33:29.789Z,19.30
2022-11-13T06:35:33.423Z,16.65
2022-11-13T06:37:36.663Z,16.60
2022-11-13T06:39:40.106Z,15.48
2022-11-13T06:41:43.261Z,14.85
2022-11-13T06:43:47.731Z,19.02
2022-11-13T06:45:51.321Z,16.88
2022-11-13T06:47:56.948Z,17.20
2022-11-13T06:50:00.210Z,16.25
2022-11-13T06:52:03.474Z,19.83
2022-11-13T06:54:06.880Z,15.27
2022-11-13T06:56:10.311Z,13.70
2022-11-13T06:58:13.811Z,18.17
2022-11-13T07:00:18.238Z,15.38
2022-11-13T07:02:21.545Z,17.73
2022-11-13T07:04:26.545Z,17.42
2022-11-13T07:06:29.837Z,23.75
2022-11-13T07:08:33.384Z,21.92
2022-11-13T07:10:36.722Z,22.80
2022-11-13T07:12:41.753Z,22.45
2022-11-13T07:14:45.070Z,27.10
2022-11-13T07:17:08.627Z,26.85
2022-11-13T07:19:11.712Z,21.23
2022-11-13T07:21:16.238Z,23.40
2022-11-13T07:23:19.550Z,20.85
2022-11-13T07:25:23.098Z,21.85
2022-11-13T07:27:26.390Z,22.67
2022-11-13T07:29:29.627Z,21.58
2022-11-13T07:31:32.928Z,17.35
2022-11-13T07:33:36.203Z,18.50
2022-11-13T07:35:39.652Z,19.23
2022-11-13T07:37:44.580Z,17.85
2022-11-13T07:39:47.770Z,16.67
2022-11-13T07:41:50.998Z,19.88
2022-11-13T07:43:54.550Z,21.13
2022-11-13T07:46:01.754Z,24.05
2022-11-13T07:48:05.991Z,24.30
2022-11-13T07:50:11.145Z,19.73
2022-11-13T07:52:14.554Z,15.90
2022-11-13T07:54:19.176Z,15.00
2022-11-13T07:56:23.408Z,14.88
2022-11-13T07:58:27.167Z,18.95
2022-11-13T08:00:33.153Z,14.63
2022-11-13T08:02:36.757Z,17.45
2022-11-13T08:04:40.116Z,23.80
2022-11-13T08:06:43.910Z,31.85
2022-11-13T08:08:49.097Z,39.33
2022-11-13T08:10:54.068Z,31.70
2022-11-13T08:13:02.136Z,37.20
2022-11-13T08:15:09.369Z,39.43
2022-11-13T08:17:16.779Z,32.20
2022-11-13T08:19:20.070Z,35.63
2022-11-13T08:21:23.363Z,31.90
2022-11-13T08:23:26.957Z,30.70
2022-11-13T08:25:30.950Z,30.47
2022-11-13T08:27:35.789Z,31.17
2022-11-13T08:29:39.237Z,31.90
2022-11-13T08:31:42.578Z,30.30
2022-11-13T08:33:45.970Z,29.17
2022-11-13T08:35:59.628Z,26.87
2022-11-13T08:38:07.016Z,24.80
2022-11-13T08:40:11.505Z,26.53
2022-11-13T08:42:15.190Z,24.80
2022-11-13T08:44:19.929Z,25.73
2022-11-13T08:46:23.231Z,28.93
2022-11-13T08:48:26.817Z,24.83
2022-11-13T08:50:31.541Z,29.23
2022-11-13T08:52:34.883Z,21.83
2022-11-13T08:54:38.255Z,25.37
2022-11-13T08:56:41.661Z,21.90
2022-11-13T08:58:45.061Z,20.50
2022-11-13T09:00:49.738Z,24.43
2022-11-13T09:02:55.885Z,23.17
2022-11-13T09:04:59.095Z,19.33
2022-11-13T09:07:02.323Z,20.40
2022-11-13T09:09:06.818Z,20.43
2022-11-13T09:11:10.218Z,21.03
2022-11-13T09:13:13.454Z,21.00
2022-11-13T09:15:21.696Z,21.17
2022-11-13T09:17:28.753Z,20.63
2022-11-13T09:19:32.143Z,20.50
2022-11-13T09:21:35.513Z,21.13
2022-11-13T09:23:39.107Z,19.10
2022-11-13T09:25:42.608Z,21.67
2022-11-13T09:27:53.094Z,22.03
2022-11-13T09:29:56.349Z,20.33
2022-11-13T09:31:59.595Z,18.30
2022-11-13T09:34:04.365Z,19.03
2022-11-13T09:36:13.119Z,19.37
2022-11-13T09:38:17.290Z,19.20
2022-11-13T09:40:29.157Z,18.00
2022-11-13T09:42:34.238Z,18.37
2022-11-13T09:44:41.598Z,18.07
2022-11-13T09:46:48.833Z,19.20
2022-11-13T09:48:57.193Z,19.30
2022-11-13T09:51:07.605Z,17.27
2022-11-13T09:53:13.197Z,15.93
2022-11-13T09:55:19.986Z,17.13
2022-11-13T09:57:33.750Z,15.83
2022-11-13T09:59:41.014Z,16.47
2022-11-13T10:01:52.487Z,16.97
2022-11-13T10:04:04.330Z,16.37
2022-11-13T10:06:22.274Z,14.80
2022-11-13T10:08:29.612Z,15.80
2022-11-13T10:10:48.259Z,15.07
2022-11-13T10:12:59.383Z,17.33
2022-11-13T10:15:06.275Z,16.70
2022-11-13T10:17:15.463Z,19.40
2022-11-13T10:19:25.897Z,17.40
2022-11-13T10:21:36.360Z,19.30
2022-11-13T10:23:40.267Z,21.13
2022-11-13T10:25:45.699Z,19.07
2022-11-13T10:27:55.253Z,19.50
2022-11-13T10:29:58.876Z,17.53
2022-11-13T10:32:18.894Z,19.97
2022-11-13T10:34:22.683Z,19.63
2022-11-13T10:36:35.414Z,19.37
2022-11-13T10:38:44.559Z,17.23
2022-11-13T10:40:47.841Z,13.70
2022-11-13T10:42:51.113Z,17.07
2022-11-13T10:44:56.975Z,15.10
2022-11-13T10:47:15.012Z,13.60
2022-11-13T10:49:21.160Z,12.40
2022-11-13T10:51:27.500Z,13.97
2022-11-13T10:53:42.705Z,16.20
2022-11-13T10:55:47.470Z,12.20
2022-11-13T10:57:57.770Z,15.30
2022-11-13T11:00:01.382Z,17.50
2022-11-13T11:02:16.967Z,21.13
2022-11-13T11:04:24.085Z,16.93
2022-11-13T11:07:04.478Z,16.20
2022-11-13T11:09:09.326Z,19.67
2022-11-13T11:11:34.108Z,18.17
2022-11-13T11:13:37.350Z,19.80
2022-11-13T11:15:46.274Z,17.10
2022-11-13T11:17:54.074Z,19.10
2022-11-13T11:20:02.938Z,19.23
2022-11-13T11:22:14.602Z,17.33
2022-11-13T11:24:24.873Z,18.87
2022-11-13T11:26:34.919Z,18.20
2022-11-13T11:28:44.317Z,21.80
2022-11-13T11:30:51.733Z,17.07
2022-11-13T11:33:02.044Z,16.60
2022-11-13T11:35:15.668Z,16.93
2022-11-13T11:37:20.921Z,16.03
2022-11-13T11:39:33.486Z,15.70
2022-11-13T11:41:47.132Z,13.33
2022-11-13T11:44:02.381Z,13.20
2022-11-13T11:46:05.972Z,15.00
2022-11-13T11:48:15.427Z,14.23
2022-11-13T11:50:28.541Z,19.07
2022-11-13T11:52:50.963Z,15.27
2022-11-13T11:55:22.003Z,18.20
2022-11-13T11:57:39.631Z,17.57
2022-11-13T11:59:54.636Z,15.07
2022-11-13T12:02:36.281Z,16.37
2022-11-13T12:04:54.216Z,15.87
2022-11-13T12:07:11.537Z,15.37
2022-11-13T12:09:21.074Z,13.50
2022-11-13T12:11:30.564Z,14.23
2022-11-13T12:13:38.329Z,14.83
2022-11-13T12:15:49.087Z,19.13
2022-11-13T12:18:00.551Z,19.70
2022-11-13T12:20:10.700Z,18.43
2022-11-13T12:22:20.992Z,16.10
2022-11-13T12:24:55.124Z,16.43
2022-11-13T12:27:11.608Z,16.53
2022-11-13T12:29:29.228Z,14.67
2022-11-13T12:31:48.550Z,17.50
2022-11-13T12:34:01.521Z,17.63
2022-11-13T12:36:06.316Z,14.00
2022-11-13T12:38:19.317Z,16.70
2022-11-13T12:40:29.320Z,15.10
2022-11-13T12:42:37.156Z,17.67
2022-11-13T12:44:48.590Z,16.57
2022-11-13T12:46:54.113Z,16.63
2022-11-13T12:48:57.364Z,16.47
2022-11-13T12:51:03.840Z,15.90
2022-11-13T12:53:09.854Z,15.33
2022-11-13T12:55:27.872Z,16.70
2022-11-13T12:57:33.980Z,17.07
2022-11-13T12:59:42.199Z,16.90
2022-11-13T13:01:49.314Z,16.47
2022-11-13T13:04:40.221Z,20.30
2022-11-13T13:06:58.891Z,14.47
2022-11-13T13:09:17.255Z,13.50
2022-11-13T13:11:28.180Z,15.70
2022-11-13T13:13:42.287Z,13.77
2022-11-13T13:15:54.527Z,16.43
2022-11-13T13:18:11.841Z,13.87
2022-11-13T13:20:34.293Z,13.73
2022-11-13T13:22:37.976Z,14.77
2022-11-13T13:24:41.791Z,14.10
2022-11-13T13:26:48.813Z,10.47
2022-11-13T13:28:55.681Z,10.90
2022-11-13T13:31:09.592Z,11.40
2022-11-13T13:33:22.883Z,13.23
2022-11-13T13:35:31.922Z,11.30
2022-11-13T13:37:44.379Z,9.80
2022-11-13T13:39:59.700Z,11.27
2022-11-13T13:42:17.130Z,10.43
2022-11-13T13:44:42.743Z,9.97
2022-11-13T13:46:46.278Z,10.80
2022-11-13T13:48:53.401Z,11.47
2022-11-13T13:50:57.813Z,11.90
2022-11-13T13:53:01.860Z,11.57
2022-11-13T13:55:08.959Z,12.00
2022-11-13T13:57:16.064Z,13.90
2022-11-13T13:59:21.693Z,13.07
2022-11-13T14:01:31.209Z,13.97
2022-11-13T14:03:34.670Z,14.47
2022-11-13T14:05:38.642Z,15.30
2022-11-13T14:07:47.487Z,13.07
2022-11-13T14:09:51.162Z,13.73
2022-11-13T14:12:06.341Z,11.90
2022-11-13T14:14:17.634Z,13.33
2022-11-13T14:16:20.897Z,14.93
2022-11-13T14:18:27.364Z,13.57
2022-11-13T14:20:46.363Z,14.33
2022-11-13T14:22:56.360Z,13.70
2022-11-13T14:25:02.051Z,12.93
2022-11-13T14:27:08.371Z,15.53
2022-11-13T14:29:23.663Z,15.97
2022-11-13T14:31:30.569Z,16.80
2022-11-13T14:33:39.435Z,19.57
2022-11-13T14:35:42.943Z,16.80
2022-11-13T14:37:47.362Z,17.93
2022-11-13T14:39:51.964Z,15.90
2022-11-13T14:41:58.617Z,17.20
2022-11-13T14:44:01.927Z,15.97
2022-11-13T14:46:07.203Z,17.40
2022-11-13T14:48:21.677Z,18.33
2022-11-13T14:50:28.685Z,17.07
2022-11-13T14:52:31.942Z,17.10
2022-11-13T14:55:08.006Z,17.80
2022-11-13T14:57:11.533Z,19.70
2022-11-13T14:59:19.851Z,17.80
2022-11-13T15:01:25.585Z,17.63
2022-11-13T15:03:31.169Z,16.50
2022-11-13T15:05:36.469Z,19.70
2022-11-13T15:07:43.444Z,18.23
2022-11-13T15:09:46.937Z,18.50
2022-11-13T15:11:50.949Z,16.20
2022-11-13T15:13:54.662Z,21.03
2022-11-13T15:15:58.137Z,23.50
2022-11-13T15:18:03.526Z,25.50
2022-11-13T15:20:09.790Z,17.87
2022-11-13T15:22:31.304Z,22.60
2022-11-13T15:24:34.748Z,23.77
2022-11-13T15:26:38.140Z,20.47
2022-11-13T15:28:41.788Z,21.97
2022-11-13T15:30:45.179Z,20.60
2022-11-13T15:32:49.338Z,21.37
2022-11-13T15:34:52.566Z,23.03
2022-11-13T15:36:55.960Z,23.13
2022-11-13T15:39:06.116Z,25.10
2022-11-13T15:41:13.964Z,25.53
2022-11-13T15:43:20.279Z,20.97
2022-11-13T15:45:23.644Z,26.23
2022-11-13T15:47:29.358Z,26.52
2022-11-13T15:49:32.679Z,23.85
2022-11-13T15:51:39.045Z,27.27
2022-11-13T15:53:42.482Z,28.23
2022-11-13T15:55:47.378Z,29.55
2022-11-13T15:57:51.241Z,27.13
2022-11-13T15:59:54.882Z,28.55
2022-11-13T16:01:58.512Z,26.80
2022-11-13T16:04:02.580Z,20.15
2022-11-13T16:06:05.934Z,22.85
2022-11-13T16:08:13.962Z,24.02
2022-11-13T16:10:17.373Z,26.55
2022-11-13T16:12:21.967Z,24.77
2022-11-13T16:14:25.542Z,24.48
2022-11-13T16:16:32.007Z,29.52
2022-11-13T16:18:35.648Z,27.45
2022-11-13T16:20:38.828Z,28.33
2022-11-13T16:22:42.389Z,27.42
2022-11-13T16:24:45.988Z,27.17
2022-11-13T16:26:52.041Z,27.90
2022-11-13T16:29:13.189Z,26.17
2022-11-13T16:31:17.374Z,25.65
2022-11-13T16:33:20.755Z,30.48
2022-11-13T16:35:23.964Z,22.42
2022-11-13T16:37:27.170Z,24.13
2022-11-13T16:39:30.351Z,30.23
2022-11-13T16:41:34.022Z,23.75
2022-11-13T16:43:37.209Z,23.67
2022-11-13T16:45:41.926Z,20.63
2022-11-13T16:47:46.046Z,25.98
2022-11-13T16:49:49.325Z,26.15
2022-11-13T16:51:53.697Z,26.60
2022-11-13T16:53:57.143Z,30.58
2022-11-13T16:56:01.796Z,26.98
2022-11-13T16:58:05.971Z,25.42
2022-11-13T17:00:13.405Z,29.33
2022-11-13T17:02:19.611Z,24.70
2022-11-13T17:04:23.281Z,42.67
2022-11-13T17:06:28.753Z,42.30
2022-11-13T17:08:32.055Z,47.97
2022-11-13T17:10:35.441Z,47.13
2022-11-13T17:12:38.832Z,39.53
2022-11-13T17:14:42.275Z,34.35
2022-11-13T17:16:45.577Z,35.53
2022-11-13T17:18:52.116Z,46.60
2022-11-13T17:20:55.472Z,52.13
2022-11-13T17:22:58.858Z,46.70
2022-11-13T17:25:02.189Z,51.30
2022-11-13T17:27:05.748Z,43.88
2022-11-13T17:29:09.039Z,53.03
2022-11-13T17:31:13.807Z,44.10
2022-11-13T17:33:17.552Z,52.80
2022-11-13T17:35:22.309Z,55.83
2022-11-13T17:37:25.633Z,37.30
2022-11-13T17:39:29.031Z,47.42
2022-11-13T17:41:32.279Z,43.53
2022-11-13T17:43:36.987Z,49.95
2022-11-13T17:45:40.764Z,54.88
2022-11-13T17:47:44.096Z,57.67
2022-11-13T17:49:47.812Z,48.95
2022-11-13T17:51:52.418Z,53.25
2022-11-13T17:53:58.562Z,50.05
2022-11-13T17:56:03.635Z,51.42
2022-11-13T17:58:07.016Z,47.83
2022-11-13T18:00:11.473Z,36.92
2022-11-13T18:02:14.787Z,44.72
2022-11-13T18:04:17.986Z,44.45
2022-11-13T18:06:21.953Z,48.50
2022-11-13T18:08:26.604Z,50.38
2022-11-13T18:10:29.928Z,46.03
2022-11-13T18:12:33.535Z,53.25
2022-11-13T18:14:36.734Z,45.08
2022-11-13T18:16:39.991Z,49.00
2022-11-13T18:18:43.743Z,54.13
2022-11-13T18:20:46.950Z,56.22
2022-11-13T18:22:50.320Z,39.08
2022-11-13T18:24:55.659Z,48.83
2022-11-13T18:26:58.872Z,45.80
2022-11-13T18:29:02.710Z,45.97
2022-11-13T18:31:10.391Z,40.88
2022-11-13T18:33:13.765Z,50.45
2022-11-13T18:35:17.162Z,42.80
2022-11-13T18:37:20.385Z,44.28
2022-11-13T18:39:23.656Z,42.78
2022-11-13T18:41:28.374Z,35.88
2022-11-13T18:43:31.907Z,47.10
2022-11-13T18:45:35.351Z,49.63
2022-11-13T18:47:38.637Z,51.53
2022-11-13T18:49:41.799Z,55.47
2022-11-13T18:51:45.013Z,44.97
2022-11-13T18:53:49.951Z,47.85
2022-11-13T18:55:53.432Z,45.40
2022-11-13T18:57:58.267Z,52.72
2022-11-13T19:00:01.460Z,45.90
2022-11-13T19:02:05.005Z,43.03
2022-11-13T19:04:24.319Z,47.28
2022-11-13T19:06:28.479Z,52.50
2022-11-13T19:08:31.949Z,50.85
2022-11-13T19:10:35.572Z,45.15
2022-11-13T19:12:38.965Z,50.08
2022-11-13T19:14:44.009Z,49.42
2022-11-13T19:16:47.652Z,45.40
2022-11-13T19:18:53.625Z,47.38
2022-11-13T19:20:57.096Z,45.33
2022-11-13T19:23:03.983Z,40.08
2022-11-13T19:25:10.120Z,46.03
2022-11-13T19:27:13.426Z,41.53
2022-11-13T19:29:16.790Z,42.35
2022-11-13T19:31:23.811Z,42.78
2022-11-13T19:33:28.368Z,36.50
2022-11-13T19:35:33.490Z,42.55
2022-11-13T19:37:36.820Z,46.03
2022-11-13T19:39:40.106Z,37.08
2022-11-13T19:41:43.775Z,46.67
2022-11-13T19:43:48.027Z,44.20
2022-11-13T19:45:54.168Z,48.03
2022-11-13T19:47:59.413Z,40.15
2022-11-13T19:50:02.907Z,47.45
2022-11-13T19:52:06.566Z,43.15
2022-11-13T19:54:10.366Z,39.15
2022-11-13T19:56:15.392Z,45.25
2022-11-13T19:58:19.037Z,47.90
2022-11-13T20:00:22.357Z,43.30
2022-11-13T20:02:25.995Z,67.80
2022-11-13T20:04:31.102Z,59.05
2022-11-13T20:06:34.861Z,56.47
2022-11-13T20:08:39.104Z,69.20
2022-11-13T20:10:42.527Z,73.18
2022-11-13T20:12:46.477Z,63.80
2022-11-13T20:14:49.803Z,74.78
2022-11-13T20:16:53.171Z,67.53
2022-11-13T20:18:58.592Z,71.28
2022-11-13T20:21:03.470Z,75.53
2022-11-13T20:23:07.119Z,74.80
2022-11-13T20:25:11.022Z,66.17
2022-11-13T20:27:14.358Z,74.47
2022-11-13T20:29:17.809Z,64.65
2022-11-13T20:31:22.844Z,64.80
2022-11-13T20:33:26.374Z,63.30
2022-11-13T20:35:29.621Z,67.32
2022-11-13T20:37:34.878Z,62.47
2022-11-13T20:39:39.008Z,68.70
2022-11-13T20:41:42.564Z,60.83
2022-11-13T20:43:45.855Z,62.80
2022-11-13T20:45:49.146Z,58.88
2022-11-13T20:47:52.441Z,51.47
2022-11-13T20:49:55.982Z,55.20
2022-11-13T20:51:59.166Z,51.08
2022-11-13T20:54:04.003Z,53.95
2022-11-13T20:56:08.421Z,47.90
2022-11-13T20:58:11.854Z,44.22
2022-11-13T21:00:16.235Z,43.33
2022-11-13T21:02:19.590Z,33.90
2022-11-13T21:04:23.525Z,36.55
2022-11-13T21:06:27.159Z,32.50
2022-11-13T21:08:30.628Z,35.17
2022-11-13T21:10:36.505Z,38.93
2022-11-13T21:12:39.914Z,37.70
2022-11-13T21:14:44.259Z,47.17
2022-11-13T21:16:47.466Z,45.17
2022-11-13T21:18:50.944Z,51.00
2022-11-13T21:20:54.322Z,53.60
2022-11-13T21:22:58.810Z,50.38
2022-11-13T21:25:02.038Z,45.13
2022-11-13T21:29:31.825Z,42.28
2022-11-13T21:31:38.432Z,42.20
2022-11-13T21:33:43.289Z,46.25
2022-11-13T21:35:46.916Z,45.03
2022-11-13T21:37:50.310Z,43.08
2022-11-13T21:39:53.625Z,45.37
2022-11-13T21:41:59.677Z,43.90
2022-11-13T21:44:08.117Z,44.40
2022-11-13T21:46:11.298Z,42.17
2022-11-13T21:48:16.967Z,40.57
2022-11-13T21:50:20.252Z,43.60
2022-11-13T21:52:23.470Z,42.67
2022-11-13T21:54:26.867Z,44.08
2022-11-13T21:56:31.715Z,55.43
2022-11-13T21:58:37.766Z,41.57
2022-11-13T22:00:42.473Z,42.45
2022-11-13T22:02:45.641Z,46.13
2022-11-13T22:04:48.806Z,41.85
2022-11-13T22:06:52.792Z,43.42
2022-11-13T22:08:57.779Z,40.63
2022-11-13T22:11:01.091Z,37.45
2022-11-13T22:13:04.500Z,37.60
2022-11-13T22:15:09.757Z,38.47
2022-11-13T22:17:14.484Z,32.23
2022-11-13T22:19:24.045Z,37.25
2022-11-13T22:21:31.302Z,32.80
2022-11-13T22:23:35.729Z,31.80
2022-11-13T22:25:38.996Z,32.90
2022-11-13T22:27:42.203Z,34.57
2022-11-13T22:29:45.559Z,33.60
2022-11-13T22:31:48.779Z,31.55
2022-11-13T22:33:55.283Z,34.10
2022-11-13T22:36:02.891Z,43.47
2022-11-13T22:38:06.440Z,35.15
2022-11-13T22:40:13.259Z,33.80
2022-11-13T22:42:16.649Z,36.83
2022-11-13T22:44:19.933Z,36.92
2022-11-13T22:46:25.184Z,36.45
2022-11-13T22:48:28.720Z,34.88
2022-11-13T22:50:35.876Z,32.90
2022-11-13T22:52:39.211Z,35.17
2022-11-13T22:54:42.432Z,33.88
2022-11-13T22:56:45.748Z,38.92
2022-11-13T22:58:49.109Z,35.08
2022-11-13T23:00:52.400Z,34.22
2022-11-13T23:02:55.792Z,33.95
2022-11-13T23:04:58.956Z,34.15
2022-11-13T23:07:03.777Z,33.30
2022-11-13T23:09:07.502Z,37.10
2022-11-13T23:11:13.795Z,31.77
2022-11-13T23:13:17.306Z,34.97
2022-11-13T23:15:20.546Z,34.03
2022-11-13T23:17:23.759Z,35.20
2022-11-13T23:19:26.940Z,33.22
2022-11-13T23:21:30.702Z,35.20
2022-11-13T23:23:36.370Z,40.63
2022-11-13T23:25:40.008Z,35.50
2022-11-13T23:27:43.212Z,32.33
2022-11-13T23:29:50.092Z,36.00
2022-11-13T23:31:54.094Z,36.67
2022-11-13T23:33:57.632Z,37.58
2022-11-13T23:36:02.048Z,36.33
2022-11-13T23:38:05.589Z,32.38
2022-11-13T23:40:11.472Z,36.17
2022-11-13T23:42:23.970Z,29.98
2022-11-13T23:44:39.132Z,40.10
2022-11-13T23:46:43.278Z,32.27
2022-11-13T23:48:46.878Z,29.38
2022-11-13T23:50:50.467Z,30.60
2022-11-13T23:52:53.862Z,25.93
2022-11-13T23:54:57.152Z,30.00
2022-11-13T23:57:01.743Z,26.70
2022-11-13T23:59:04.989Z,29.23
